Aeroporto :
LOGIN :

Iscrizione | Disclaimer

   EN    FR    IT 

 










Sommario :    VFR   VFR Marginale   IFR   IFR Intensivo   IFR Molto Intensivo
Visibilità : 
Base nubi : 
>= 8 km
>= 3000ft
5 / 8 km
1000 / 3000 ft
1500m / 5 km
500 / 1000 ft
800 / 1500m
200 / 500 ft
< 800m
< 200 ft
Simboli :   Temporali  Nebbia  Neve Forte  Precipitazioni Forti  Vento > 20 kt
SIGMETs :   Varie  Temporali  Ghiacco  Turbolenza  Onda orograficha  Ceneri Vulcaniche






- Altitudine del aeroporto : 120 ft
- Codice IATA : MME


EGNV - Durham Tees valley

ULTIMO METAR :
  • 141420Z 01017KT 9999 7000NW -SHRA FEW018 SCT026 07/03 Q1004

METARs OBSOLETI :
  • 141350Z 01017KT 9999 FEW020 SCT025 06/03 Q1004
  • 141320Z 02019KT 9999 -SHRA FEW020 SCT025 06/03 Q1004
  • 141250Z 02015KT 9999 SCT020 07/03 Q1004
  • 141220Z 01016KT 9999 FEW015 SCT025 06/03 Q1003
  • 141150Z 03014KT 360V060 9999 -SHRA FEW018 SCT026 06/03 Q1004

TAF TAF EGNV
Valido dal 14 a 15 ore il 14 a 22 ore UTC


141404Z 1415/1422 01013KT 9999 -RA BKN010
TEMPO 1415/1422 8000 RA
PROB30
TEMPO 1418/1422 4000 +RA BKN008
ATIS : +44 9012 018 111



MetMap, La meteo Aeronautica in un colpo d'occhio ! - Copyright ORBIFLY Dicembre 2007 - Disclaimer

ORBIFLY MET'MAP TEAM :

Programmazione e sviluppo : Alexandra Zaïnal
Concezione e sviluppo : Baudouin d'Aumeries
Co-Programmazione e sviluppo : Marc-Olivier Méhu
Supporto tecnico e logistico : Manuel Goepfert
Aiuto per la traduzione : Arnaldo La Scala

Contatto : metmap@orbifly.com




FONTI E CREDITI :

   NOAA